Time;durP1;ratioP1;P1;durP2;ratioP2;P2;SDS_P1;SDS_P2;PMS_P1;PMS_P2;Temp;Humidity;BMP_temperature;BMP_pressure;BME280_temperature;BME280_humidity;BME280_pressure;Samples;Min_cycle;Max_cycle;Signal;HPM_P1;HPM_P2
2021/07/04 00:01:29;0.00;0.00;0.62;0.00;0.00;0.62;12.63;11.50;;;28.80;34.70;;;;;;2277719;60;20396;-64
2021/07/04 00:03:56;0.00;0.00;0.62;0.00;0.00;0.62;11.97;10.97;;;28.80;34.80;;;;;;2278157;60;20778;-64
2021/07/04 00:06:22;0.00;0.00;0.62;0.00;0.00;0.62;13.80;12.50;;;28.80;34.80;;;;;;2277961;60;20356;-64
2021/07/04 00:08:49;0.00;0.00;0.62;0.00;0.00;0.62;14.07;12.10;;;28.80;34.70;;;;;;2277787;61;20347;-64
2021/07/04 00:11:16;0.00;0.00;0.62;0.00;0.00;0.62;13.13;11.83;;;28.80;34.80;;;;;;2277766;61;20566;-64
2021/07/04 00:13:42;0.00;0.00;0.62;0.00;0.00;0.62;15.43;12.70;;;28.80;34.80;;;;;;2277843;60;20387;-65
2021/07/04 00:16:10;0.00;0.00;0.62;0.00;0.00;0.62;12.70;11.57;;;28.80;34.80;;;;;;2277719;61;20336;-65
2021/07/04 00:18:37;0.00;0.00;0.62;0.00;0.00;0.62;13.83;12.53;;;28.80;34.80;;;;;;2278104;61;20401;-65
2021/07/04 00:21:09;0.00;0.00;0.62;0.00;0.00;0.62;13.53;12.33;;;28.80;34.80;;;;;;2277721;61;20390;-63
2021/07/04 00:23:37;0.00;0.00;0.62;0.00;0.00;0.62;15.90;12.77;;;28.80;34.80;;;;;;2277545;61;20371;-64
2021/07/04 00:26:04;0.00;0.00;0.62;0.00;0.00;0.62;13.50;12.40;;;28.80;34.80;;;;;;2278120;61;20355;-64
2021/07/04 00:28:30;0.00;0.00;0.62;0.00;0.00;0.62;13.77;12.47;;;28.80;34.80;;;;;;2277820;61;20355;-63
2021/07/04 00:30:58;0.00;0.00;0.62;0.00;0.00;0.62;14.37;13.07;;;28.80;34.90;;;;;;2277525;60;20370;-64
2021/07/04 00:33:26;0.00;0.00;0.62;0.00;0.00;0.62;11.80;10.80;;;28.80;35.60;;;;;;2278063;61;20375;-65
2021/07/04 00:35:52;0.00;0.00;0.62;0.00;0.00;0.62;14.60;13.10;;;28.80;34.90;;;;;;2277832;60;20363;-64
2021/07/04 00:38:19;0.00;0.00;0.62;0.00;0.00;0.62;12.80;11.60;;;28.70;34.80;;;;;;2277619;61;20358;-65
2021/07/04 00:40:46;0.00;0.00;0.62;0.00;0.00;0.62;13.97;12.70;;;28.70;34.80;;;;;;2277630;61;20454;-64
2021/07/04 00:43:13;0.00;0.00;0.62;0.00;0.00;0.62;13.37;12.23;;;28.70;34.80;;;;;;2277584;61;20371;-65
2021/07/04 00:45:40;0.00;0.00;0.62;0.00;0.00;0.62;14.00;12.63;;;28.70;34.80;;;;;;2277747;61;20352;-64
2021/07/04 00:48:07;0.00;0.00;0.62;0.00;0.00;0.62;15.77;14.30;;;28.70;34.80;;;;;;2278036;61;20355;-65
2021/07/04 00:50:36;0.00;0.00;0.62;0.00;0.00;0.62;14.20;12.80;;;28.70;34.80;;;;;;2277516;61;20355;-64
2021/07/04 00:53:05;0.00;0.00;0.62;0.00;0.00;0.62;15.43;13.90;;;28.70;34.80;;;;;;2277077;61;20714;-64
2021/07/04 00:55:36;0.00;0.00;0.62;0.00;0.00;0.62;15.67;14.07;;;28.70;34.80;;;;;;2277957;61;20415;-65
2021/07/04 00:58:09;0.00;0.00;0.62;0.00;0.00;0.62;15.13;13.73;;;28.70;34.80;;;;;;2277083;61;20344;-64
2021/07/04 01:00:40;0.00;0.00;0.62;0.00;0.00;0.62;16.93;15.13;;;28.70;34.80;;;;;;2277205;61;20351;-63
2021/07/04 01:03:08;0.00;0.00;0.62;0.00;0.00;0.62;15.23;13.70;;;28.70;34.80;;;;;;2277326;61;20438;-64
2021/07/04 01:05:43;0.00;0.00;0.62;0.00;0.00;0.62;15.67;14.27;;;28.70;34.80;;;;;;2277548;61;20434;-66
2021/07/04 01:08:13;0.00;0.00;0.62;0.00;0.00;0.62;16.00;14.47;;;28.70;34.80;;;;;;2277829;61;20404;-65
2021/07/04 01:10:41;0.00;0.00;0.62;0.00;0.00;0.62;15.80;14.20;;;28.70;34.80;;;;;;2277300;61;20395;-68
2021/07/04 01:13:13;0.00;0.00;0.62;0.00;0.00;0.62;15.40;14.00;;;28.70;34.80;;;;;;2276491;61;20387;-68
2021/07/04 01:15:45;0.00;0.00;0.62;0.00;0.00;0.62;13.83;12.53;;;28.70;34.80;;;;;;2277135;61;20343;-69
2021/07/04 01:18:13;0.00;0.00;0.62;0.00;0.00;0.62;14.40;13.20;;;28.70;34.80;;;;;;2277273;61;20387;-68
2021/07/04 01:20:52;0.00;0.00;0.62;0.00;0.00;0.62;14.37;13.07;;;28.60;34.80;;;;;;2276875;61;20355;-68
2021/07/04 01:23:20;0.00;0.00;0.62;0.00;0.00;0.62;13.90;12.60;;;28.60;34.80;;;;;;2277198;61;20370;-68
2021/07/04 01:25:52;0.00;0.00;0.62;0.00;0.00;0.62;14.00;12.70;;;28.60;34.80;;;;;;2277315;61;20351;-68
2021/07/04 01:28:23;0.00;0.00;0.62;0.00;0.00;0.62;13.93;12.33;;;28.60;34.80;;;;;;2276968;61;20346;-69
2021/07/04 01:30:57;0.00;0.00;0.62;0.00;0.00;0.62;13.60;12.30;;;28.60;34.80;;;;;;2277296;61;20362;-69
2021/07/04 01:33:26;0.00;0.00;0.62;0.00;0.00;0.62;13.13;11.90;;;28.60;34.80;;;;;;2277027;61;20378;-68
2021/07/04 01:35:52;0.00;0.00;0.62;0.00;0.00;0.62;12.83;11.73;;;28.60;34.80;;;;;;2276962;61;20362;-68
2021/07/04 01:38:20;0.00;0.00;0.62;0.00;0.00;0.62;14.43;11.93;;;28.60;34.80;;;;;;2277218;61;20377;-68
2021/07/04 01:40:49;0.00;0.00;0.62;0.00;0.00;0.62;14.20;12.90;;;28.60;34.80;;;;;;2277098;60;20434;-69
2021/07/04 01:43:18;0.00;0.00;0.62;0.00;0.00;0.62;13.60;12.40;;;28.60;34.80;;;;;;2277437;61;20367;-69
2021/07/04 01:45:45;0.00;0.00;0.62;0.00;0.00;0.62;13.50;12.30;;;28.50;34.70;;;;;;2277178;61;20362;-69
2021/07/04 01:48:18;0.00;0.00;0.62;0.00;0.00;0.62;15.13;13.63;;;28.50;34.70;;;;;;2277052;60;20351;-68
2021/07/04 01:50:50;0.00;0.00;0.62;0.00;0.00;0.62;14.20;12.80;;;28.50;34.70;;;;;;2277040;61;20351;-68
2021/07/04 01:53:22;0.00;0.00;0.62;0.00;0.00;0.62;12.73;11.63;;;28.50;34.70;;;;;;2276922;60;20379;-68
2021/07/04 01:55:54;0.00;0.00;0.62;0.00;0.00;0.62;15.13;13.77;;;28.50;34.70;;;;;;2277101;61;20363;-68
2021/07/04 01:58:21;0.00;0.00;0.62;0.00;0.00;0.62;14.33;13.00;;;28.50;34.70;;;;;;2277090;60;20577;-68
2021/07/04 02:00:56;0.00;0.00;0.62;0.00;0.00;0.62;14.20;13.00;;;28.50;34.70;;;;;;2277233;61;20359;-69
2021/07/04 02:03:24;0.00;0.00;0.62;0.00;0.00;0.62;14.47;13.17;;;28.50;34.70;;;;;;2276956;61;20367;-68
2021/07/04 02:05:57;0.00;0.00;0.62;0.00;0.00;0.62;13.07;11.90;;;28.40;34.60;;;;;;2276878;61;20351;-68
2021/07/04 02:08:26;0.00;0.00;0.62;0.00;0.00;0.62;13.10;11.80;;;28.40;34.70;;;;;;2277698;61;20347;-68
2021/07/04 02:11:00;0.00;0.00;0.62;0.00;0.00;0.62;14.50;13.20;;;28.40;34.60;;;;;;2276815;61;20416;-68
2021/07/04 02:13:27;0.00;0.00;0.62;0.00;0.00;0.62;12.30;11.20;;;28.40;34.60;;;;;;2276798;61;20654;-68
2021/07/04 02:15:55;0.00;0.00;0.62;0.00;0.00;0.62;11.57;10.63;;;28.40;34.60;;;;;;2277274;60;20351;-68
2021/07/04 02:18:34;0.00;0.00;0.62;0.00;0.00;0.62;12.00;11.00;;;28.40;34.70;;;;;;2276808;60;20362;-69
2021/07/04 02:21:29;0.00;0.00;0.62;0.00;0.00;0.62;11.00;10.10;;;28.40;34.60;;;;;;2276877;61;20355;-68
2021/07/04 02:24:12;0.00;0.00;0.62;0.00;0.00;0.62;12.03;11.03;;;28.30;34.60;;;;;;2277469;61;20369;-70
2021/07/04 02:26:58;0.00;0.00;0.62;0.00;0.00;0.62;12.33;11.13;;;28.30;34.70;;;;;;2277332;60;20370;-67
2021/07/04 02:29:40;0.00;0.00;0.62;0.00;0.00;0.62;11.77;10.77;;;28.30;34.60;;;;;;2276694;61;20356;-68
2021/07/04 02:32:11;0.00;0.00;0.62;0.00;0.00;0.62;10.63;9.73;;;28.30;34.70;;;;;;2277030;61;20437;-68
2021/07/04 02:34:38;0.00;0.00;0.62;0.00;0.00;0.62;11.33;10.23;;;28.30;34.60;;;;;;2276830;61;20379;-68
2021/07/04 02:37:07;0.00;0.00;0.62;0.00;0.00;0.62;10.33;9.43;;;28.20;34.50;;;;;;2276774;61;20708;-67
2021/07/04 02:39:44;0.00;0.00;0.62;0.00;0.00;0.62;10.17;9.17;;;28.20;34.40;;;;;;2277038;61;20351;-67
2021/07/04 02:42:12;0.00;0.00;0.62;0.00;0.00;0.62;9.70;8.83;;;28.10;34.30;;;;;;2277335;61;20433;-68
2021/07/04 02:44:39;0.00;0.00;0.62;0.00;0.00;0.62;9.90;9.10;;;28.10;34.30;;;;;;2277321;61;20355;-68
2021/07/04 02:47:08;0.00;0.00;0.62;0.00;0.00;0.62;9.80;8.90;;;28.00;34.30;;;;;;2277030;61;20599;-68
2021/07/04 02:49:35;0.00;0.00;0.62;0.00;0.00;0.62;7.97;7.27;;;28.00;34.30;;;;;;2276620;61;20708;-68
2021/07/04 02:52:05;0.00;0.00;0.62;0.00;0.00;0.62;8.83;8.13;;;27.90;34.40;;;;;;2277101;60;20387;-69
2021/07/04 02:54:32;0.00;0.00;0.62;0.00;0.00;0.62;9.17;8.33;;;27.80;34.40;;;;;;2276946;61;20379;-69
2021/07/04 02:57:19;0.00;0.00;0.62;0.00;0.00;0.62;8.73;7.83;;;27.70;34.50;;;;;;2276820;60;20429;-68
2021/07/04 02:59:47;0.00;0.00;0.62;0.00;0.00;0.62;7.50;6.90;;;27.60;34.60;;;;;;2276834;61;20668;-68
2021/07/04 03:02:16;0.00;0.00;0.62;0.00;0.00;0.62;7.87;7.17;;;27.60;35.40;;;;;;2276932;61;20441;-68
2021/07/04 03:04:48;0.00;0.00;0.62;0.00;0.00;0.62;7.33;6.47;;;27.50;34.80;;;;;;2276887;61;20351;-69
2021/07/04 03:07:15;0.00;0.00;0.62;0.00;0.00;0.62;8.13;7.43;;;27.50;34.90;;;;;;2276858;61;20360;-69
2021/07/04 03:09:43;0.00;0.00;0.62;0.00;0.00;0.62;8.37;6.80;;;27.40;34.90;;;;;;2277320;61;20773;-69
2021/07/04 03:12:13;0.00;0.00;0.62;0.00;0.00;0.62;8.30;7.00;;;27.40;35.00;;;;;;2273459;61;20370;-69
2021/07/04 03:14:41;0.00;0.00;0.62;0.00;0.00;0.62;7.60;7.00;;;27.40;35.10;;;;;;2276873;60;20443;-69
2021/07/04 03:17:08;0.00;0.00;0.62;0.00;0.00;0.62;6.70;6.10;;;27.40;35.20;;;;;;2277482;61;20355;-68
2021/07/04 03:19:35;0.00;0.00;0.62;0.00;0.00;0.62;6.57;6.00;;;27.40;35.20;;;;;;2277179;61;20347;-68
2021/07/04 03:22:04;0.00;0.00;0.62;0.00;0.00;0.62;6.60;6.00;;;27.30;35.20;;;;;;2276768;61;20706;-67
2021/07/04 03:24:32;0.00;0.00;0.62;0.00;0.00;0.62;6.47;5.87;;;27.40;35.30;;;;;;2277053;60;20344;-68
2021/07/04 03:26:59;0.00;0.00;0.62;0.00;0.00;0.62;6.43;5.83;;;27.40;35.40;;;;;;2277111;60;20356;-68
2021/07/04 03:29:26;0.00;0.00;0.62;0.00;0.00;0.62;6.97;6.27;;;27.40;35.40;;;;;;2276737;61;20343;-68
2021/07/04 03:31:54;0.00;0.00;0.62;0.00;0.00;0.62;7.17;6.57;;;27.40;35.40;;;;;;2276914;61;20461;-68
2021/07/04 03:34:20;0.00;0.00;0.62;0.00;0.00;0.62;8.53;7.73;;;27.40;35.40;;;;;;2277071;60;20375;-68
2021/07/04 03:36:50;0.00;0.00;0.62;0.00;0.00;0.62;7.60;6.90;;;27.40;35.20;;;;;;2277494;61;20347;-68
2021/07/04 03:39:17;0.00;0.00;0.62;0.00;0.00;0.62;7.33;6.73;;;27.30;35.20;;;;;;2277814;61;20440;-69
2021/07/04 03:41:46;0.00;0.00;0.62;0.00;0.00;0.62;6.23;5.70;;;27.30;35.10;;;;;;2277057;61;20355;-69
2021/07/04 03:44:12;0.00;0.00;0.62;0.00;0.00;0.62;7.40;6.70;;;27.30;35.20;;;;;;2277589;60;20360;-68
2021/07/04 03:46:42;0.00;0.00;0.62;0.00;0.00;0.62;6.80;6.20;;;27.30;35.20;;;;;;2278256;61;20351;-68
2021/07/04 03:49:10;0.00;0.00;0.62;0.00;0.00;0.62;6.50;5.97;;;27.20;35.20;;;;;;2277619;61;20599;-68
2021/07/04 03:51:45;0.00;0.00;0.62;0.00;0.00;0.62;6.23;5.63;;;27.20;35.20;;;;;;2277938;61;20367;-69
2021/07/04 03:54:13;0.00;0.00;0.62;0.00;0.00;0.62;7.13;6.53;;;27.30;35.30;;;;;;2277894;61;20746;-69
2021/07/04 03:56:41;0.00;0.00;0.62;0.00;0.00;0.62;6.53;5.93;;;27.30;35.30;;;;;;2277295;61;20798;-69
2021/07/04 03:59:09;0.00;0.00;0.62;0.00;0.00;0.62;7.77;7.07;;;27.20;35.20;;;;;;2277589;61;20355;-68
2021/07/04 04:01:37;0.00;0.00;0.62;0.00;0.00;0.62;6.70;6.10;;;27.30;35.40;;;;;;2277513;61;20666;-69
2021/07/04 04:04:03;0.00;0.00;0.62;0.00;0.00;0.62;7.93;7.17;;;27.30;35.20;;;;;;2277176;61;20711;-68
2021/07/04 04:06:35;0.00;0.00;0.62;0.00;0.00;0.62;8.53;7.83;;;27.20;35.10;;;;;;2277535;61;20351;-68
2021/07/04 04:09:14;0.00;0.00;0.62;0.00;0.00;0.62;6.50;5.90;;;27.20;35.00;;;;;;2277861;61;20363;-68
2021/07/04 04:11:48;0.00;0.00;0.62;0.00;0.00;0.62;7.47;6.83;;;27.20;34.90;;;;;;2277343;61;20359;-69
2021/07/04 04:14:19;0.00;0.00;0.62;0.00;0.00;0.62;7.70;7.00;;;27.20;34.80;;;;;;2277747;60;20371;-68
2021/07/04 04:16:47;0.00;0.00;0.62;0.00;0.00;0.62;7.77;7.03;;;27.10;34.70;;;;;;2277321;61;20363;-69
2021/07/04 04:19:17;0.00;0.00;0.62;0.00;0.00;0.62;7.13;6.37;;;27.10;34.70;;;;;;2277311;61;20672;-69
2021/07/04 04:21:45;0.00;0.00;0.62;0.00;0.00;0.62;7.53;6.93;;;27.00;34.80;;;;;;2277652;61;20426;-68
2021/07/04 04:24:12;0.00;0.00;0.62;0.00;0.00;0.62;8.40;6.27;;;27.00;34.80;;;;;;2277189;61;20699;-68
2021/07/04 04:26:40;0.00;0.00;0.62;0.00;0.00;0.62;7.13;6.13;;;26.90;34.80;;;;;;2277201;60;20734;-69
2021/07/04 04:29:07;0.00;0.00;0.62;0.00;0.00;0.62;7.77;6.97;;;26.90;34.90;;;;;;2277596;61;20363;-68
2021/07/04 04:31:35;0.00;0.00;0.62;0.00;0.00;0.62;10.53;7.03;;;26.80;34.90;;;;;;2277256;61;20421;-69
2021/07/04 04:34:02;0.00;0.00;0.62;0.00;0.00;0.62;6.80;6.30;;;26.80;35.00;;;;;;2277420;61;20387;-69
2021/07/04 04:36:29;0.00;0.00;0.62;0.00;0.00;0.62;6.90;6.30;;;26.70;35.10;;;;;;2277720;60;20431;-69
2021/07/04 04:38:56;0.00;0.00;0.62;0.00;0.00;0.62;6.63;6.13;;;26.70;35.10;;;;;;2277895;61;20356;-68
2021/07/04 04:41:23;0.00;0.00;0.62;0.00;0.00;0.62;7.73;5.97;;;26.70;35.20;;;;;;2277418;61;20404;-69
2021/07/04 04:43:49;0.00;0.00;0.62;0.00;0.00;0.62;6.20;5.60;;;26.70;35.30;;;;;;2278194;61;20375;-69
2021/07/04 04:46:17;0.00;0.00;0.62;0.00;0.00;0.62;7.43;6.00;;;26.60;35.30;;;;;;2277400;60;20377;-70
2021/07/04 04:48:43;0.00;0.00;0.62;0.00;0.00;0.62;6.40;5.70;;;26.60;35.40;;;;;;2277511;61;20367;-69
2021/07/04 04:51:10;0.00;0.00;0.62;0.00;0.00;0.62;7.30;6.03;;;26.60;35.40;;;;;;2277908;61;20352;-69
2021/07/04 04:53:36;0.00;0.00;0.62;0.00;0.00;0.62;7.17;6.37;;;26.60;35.40;;;;;;2277830;60;20379;-68
2021/07/04 04:56:04;0.00;0.00;0.62;0.00;0.00;0.62;6.33;5.73;;;26.60;35.40;;;;;;2277531;61;20392;-69
2021/07/04 04:58:31;0.00;0.00;0.62;0.00;0.00;0.62;6.03;5.43;;;26.70;35.50;;;;;;2277420;61;20359;-68
2021/07/04 05:00:57;0.00;0.00;0.62;0.00;0.00;0.62;6.10;5.60;;;26.70;35.50;;;;;;2277824;61;20352;-69
2021/07/04 05:03:24;0.00;0.00;0.62;0.00;0.00;0.62;6.73;5.60;;;26.70;35.50;;;;;;2277124;60;20402;-69
2021/07/04 05:05:50;0.00;0.00;0.62;0.00;0.00;0.62;6.43;5.80;;;26.70;35.60;;;;;;2277754;61;20352;-68
2021/07/04 05:08:17;0.00;0.00;0.62;0.00;0.00;0.62;6.00;5.40;;;26.70;35.50;;;;;;2277353;61;20360;-69
2021/07/04 05:10:45;0.00;0.00;0.62;0.00;0.00;0.62;7.90;6.47;;;26.70;35.50;;;;;;2277039;60;20359;-68
2021/07/04 05:13:12;0.00;0.00;0.62;0.00;0.00;0.62;7.23;6.63;;;26.70;35.50;;;;;;2277576;61;20605;-68
2021/07/04 05:15:39;0.00;0.00;0.62;0.00;0.00;0.62;10.50;5.67;;;26.70;35.60;;;;;;2277676;61;20348;-68
2021/07/04 05:18:06;0.00;0.00;0.62;0.00;0.00;0.62;6.17;5.67;;;26.70;35.60;;;;;;2277666;61;20358;-68
2021/07/04 05:20:33;0.00;0.00;0.62;0.00;0.00;0.62;6.33;5.83;;;26.70;35.60;;;;;;2277666;61;20352;-68
2021/07/04 05:23:00;0.00;0.00;0.62;0.00;0.00;0.62;7.40;6.27;;;26.70;35.70;;;;;;2277538;60;20451;-68
2021/07/04 05:25:27;0.00;0.00;0.62;0.00;0.00;0.62;7.10;6.40;;;26.70;35.70;;;;;;2277767;61;20347;-69
2021/07/04 05:27:53;0.00;0.00;0.62;0.00;0.00;0.62;6.67;6.07;;;26.70;35.80;;;;;;2277577;61;20670;-68
2021/07/04 05:30:21;0.00;0.00;0.62;0.00;0.00;0.62;6.40;5.80;;;26.70;35.80;;;;;;2277515;61;20358;-69
2021/07/04 05:32:48;0.00;0.00;0.62;0.00;0.00;0.62;6.50;5.90;;;26.60;35.80;;;;;;2277604;61;20401;-69
2021/07/04 05:35:14;0.00;0.00;0.62;0.00;0.00;0.62;6.83;5.20;;;26.60;35.90;;;;;;2277561;61;20416;-69
2021/07/04 05:37:41;0.00;0.00;0.62;0.00;0.00;0.62;6.60;5.90;;;26.50;35.80;;;;;;2277615;61;20465;-69
2021/07/04 05:40:14;0.00;0.00;0.62;0.00;0.00;0.62;5.80;5.30;;;26.60;36.00;;;;;;2277616;61;20383;-68
2021/07/04 05:42:41;0.00;0.00;0.62;0.00;0.00;0.62;6.90;6.30;;;26.60;36.00;;;;;;2277486;61;20419;-68
2021/07/04 05:45:14;0.00;0.00;0.62;0.00;0.00;0.62;7.07;6.47;;;26.50;36.00;;;;;;2277707;61;20463;-68
2021/07/04 05:47:42;0.00;0.00;0.62;0.00;0.00;0.62;6.93;6.33;;;26.50;36.00;;;;;;2277520;60;20348;-68
2021/07/04 05:50:10;0.00;0.00;0.62;0.00;0.00;0.62;7.00;6.30;;;26.50;36.00;;;;;;2277493;61;20643;-68
2021/07/04 05:52:36;0.00;0.00;0.62;0.00;0.00;0.62;6.63;5.97;;;26.50;36.10;;;;;;2277586;61;20602;-69
2021/07/04 05:55:04;0.00;0.00;0.62;0.00;0.00;0.62;6.57;6.07;;;26.50;36.10;;;;;;2277396;61;20379;-68
2021/07/04 05:57:30;0.00;0.00;0.62;0.00;0.00;0.62;5.93;5.43;;;26.50;36.10;;;;;;2277378;60;20358;-68
2021/07/04 05:59:57;0.00;0.00;0.62;0.00;0.00;0.62;6.83;5.77;;;26.50;36.10;;;;;;2277733;61;20363;-68
2021/07/04 06:02:24;0.00;0.00;0.62;0.00;0.00;0.62;6.10;5.50;;;26.50;36.20;;;;;;2277349;61;20415;-68
2021/07/04 06:04:52;0.00;0.00;0.62;0.00;0.00;0.62;6.13;5.63;;;26.50;36.20;;;;;;2277473;61;20357;-68
2021/07/04 06:07:18;0.00;0.00;0.62;0.00;0.00;0.62;6.53;6.00;;;26.50;36.20;;;;;;2277730;61;20602;-68
2021/07/04 06:09:45;0.00;0.00;0.62;0.00;0.00;0.62;6.33;5.73;;;26.50;36.20;;;;;;2277183;61;20942;-68
2021/07/04 06:12:11;0.00;0.00;0.62;0.00;0.00;0.62;6.33;5.73;;;26.50;36.30;;;;;;2276953;61;20379;-68
2021/07/04 06:14:38;0.00;0.00;0.62;0.00;0.00;0.62;7.30;6.53;;;26.50;36.30;;;;;;2277595;60;20422;-68
2021/07/04 06:17:05;0.00;0.00;0.62;0.00;0.00;0.62;7.20;6.50;;;26.60;36.30;;;;;;2276860;61;20563;-69
2021/07/04 06:19:31;0.00;0.00;0.62;0.00;0.00;0.62;6.43;5.83;;;26.50;36.30;;;;;;2277519;61;20396;-68
2021/07/04 06:21:59;0.00;0.00;0.62;0.00;0.00;0.62;6.70;6.10;;;26.60;36.40;;;;;;2277564;61;20355;-68
2021/07/04 06:24:26;0.00;0.00;0.62;0.00;0.00;0.62;7.63;7.00;;;26.60;36.40;;;;;;2277193;61;20352;-68
2021/07/04 06:26:52;0.00;0.00;0.62;0.00;0.00;0.62;6.53;5.93;;;26.60;36.40;;;;;;2277437;61;20351;-68
2021/07/04 06:29:19;0.00;0.00;0.62;0.00;0.00;0.62;6.63;6.03;;;26.60;36.40;;;;;;2277609;61;20438;-68
2021/07/04 06:31:45;0.00;0.00;0.62;0.00;0.00;0.62;6.90;6.30;;;26.50;36.40;;;;;;2277163;61;20347;-68
2021/07/04 06:34:12;0.00;0.00;0.62;0.00;0.00;0.62;6.47;5.87;;;26.50;36.50;;;;;;2277339;60;20391;-67
2021/07/04 06:36:39;0.00;0.00;0.62;0.00;0.00;0.62;7.30;6.43;;;26.50;36.50;;;;;;2277522;61;20343;-67
2021/07/04 06:39:07;0.00;0.00;0.62;0.00;0.00;0.62;6.77;6.17;;;26.50;36.40;;;;;;2276764;61;20362;-67
2021/07/04 06:41:33;0.00;0.00;0.62;0.00;0.00;0.62;6.33;5.73;;;26.50;36.50;;;;;;2277299;61;20363;-68
2021/07/04 06:44:00;0.00;0.00;0.62;0.00;0.00;0.62;6.50;5.90;;;26.60;36.50;;;;;;2277574;60;20415;-68
2021/07/04 06:46:27;0.00;0.00;0.62;0.00;0.00;0.62;6.80;5.97;;;26.60;36.60;;;;;;2277448;61;20355;-68
2021/07/04 06:48:53;0.00;0.00;0.62;0.00;0.00;0.62;5.97;5.43;;;26.60;36.60;;;;;;2277391;61;20351;-67
2021/07/04 06:51:20;0.00;0.00;0.62;0.00;0.00;0.62;6.00;5.47;;;26.60;36.60;;;;;;2276862;60;20348;-69
2021/07/04 06:53:46;0.00;0.00;0.62;0.00;0.00;0.62;6.57;5.80;;;26.60;36.60;;;;;;2277131;61;20704;-71
2021/07/04 06:56:14;0.00;0.00;0.62;0.00;0.00;0.62;6.70;6.07;;;26.60;36.60;;;;;;2277413;60;20352;-69
2021/07/04 06:58:41;0.00;0.00;0.62;0.00;0.00;0.62;7.67;5.90;;;26.60;36.70;;;;;;2277539;61;20352;-69
2021/07/04 07:01:08;0.00;0.00;0.62;0.00;0.00;0.62;7.03;6.43;;;26.70;36.70;;;;;;2276803;61;20359;-69
2021/07/04 07:03:35;0.00;0.00;0.62;0.00;0.00;0.62;6.60;6.00;;;26.70;36.80;;;;;;2277385;61;20366;-70
2021/07/04 07:06:02;0.00;0.00;0.62;0.00;0.00;0.62;6.13;5.60;;;26.70;36.80;;;;;;2277445;61;20351;-69
2021/07/04 07:08:29;0.00;0.00;0.62;0.00;0.00;0.62;6.23;5.73;;;26.70;36.80;;;;;;2277265;61;20583;-72
2021/07/04 07:10:56;0.00;0.00;0.62;0.00;0.00;0.62;6.30;5.47;;;26.70;36.90;;;;;;2278029;60;20366;-71
2021/07/04 07:13:24;0.00;0.00;0.62;0.00;0.00;0.62;7.20;6.50;;;26.70;36.90;;;;;;2278108;61;20374;-70
2021/07/04 07:15:53;0.00;0.00;0.62;0.00;0.00;0.62;7.23;6.03;;;26.70;37.00;;;;;;2277651;61;20370;-74
2021/07/04 07:18:19;0.00;0.00;0.62;0.00;0.00;0.62;7.03;6.20;;;26.70;37.00;;;;;;2278459;61;20366;-71
2021/07/04 07:20:46;0.00;0.00;0.62;0.00;0.00;0.62;6.80;6.20;;;26.70;37.00;;;;;;2277789;61;20360;-69
2021/07/04 07:23:12;0.00;0.00;0.62;0.00;0.00;0.62;7.03;6.43;;;26.80;37.10;;;;;;2277896;61;20448;-70
2021/07/04 07:25:43;0.00;0.00;0.62;0.00;0.00;0.62;8.00;6.30;;;26.80;37.10;;;;;;2277997;60;20351;-73
2021/07/04 07:28:09;0.00;0.00;0.62;0.00;0.00;0.62;6.83;6.23;;;26.90;37.10;;;;;;2278123;60;20370;-74
2021/07/04 07:30:45;0.00;0.00;0.62;0.00;0.00;0.62;6.70;6.03;;;26.90;37.00;;;;;;2277467;61;20342;-67
2021/07/04 07:33:15;0.00;0.00;0.62;0.00;0.00;0.62;6.80;6.20;;;26.90;37.00;;;;;;2277908;60;20617;-70
2021/07/04 07:35:42;0.00;0.00;0.62;0.00;0.00;0.62;6.50;5.90;;;27.00;37.10;;;;;;2276862;60;20845;-69
2021/07/04 07:38:10;0.00;0.00;0.62;0.00;0.00;0.62;6.40;5.53;;;27.00;37.10;;;;;;2274088;61;20684;-70
2021/07/04 07:40:37;0.00;0.00;0.62;0.00;0.00;0.62;6.10;5.60;;;27.00;37.00;;;;;;2278379;61;20355;-66
2021/07/04 07:43:05;0.00;0.00;0.62;0.00;0.00;0.62;7.10;6.40;;;27.10;37.10;;;;;;2277658;61;20378;-68
2021/07/04 07:45:32;0.00;0.00;0.62;0.00;0.00;0.62;7.17;6.57;;;27.10;37.10;;;;;;2277288;61;20352;-69
2021/07/04 07:48:07;0.00;0.00;0.62;0.00;0.00;0.62;7.43;6.83;;;27.10;37.00;;;;;;2277544;61;20692;-70
2021/07/04 07:50:43;0.00;0.00;0.62;0.00;0.00;0.62;7.90;7.17;;;27.10;37.00;;;;;;2277443;61;20351;-73
2021/07/04 07:53:09;0.00;0.00;0.62;0.00;0.00;0.62;7.80;7.00;;;27.20;37.10;;;;;;2277708;61;20377;-68
2021/07/04 07:55:36;0.00;0.00;0.62;0.00;0.00;0.62;7.17;6.50;;;27.20;37.10;;;;;;2278112;61;20359;-71
2021/07/04 07:58:03;0.00;0.00;0.62;0.00;0.00;0.62;6.83;6.33;;;27.20;37.10;;;;;;2278168;61;20347;-68
2021/07/04 08:00:30;0.00;0.00;0.62;0.00;0.00;0.62;7.60;6.90;;;27.30;37.10;;;;;;2277985;61;20352;-69
2021/07/04 08:02:56;0.00;0.00;0.62;0.00;0.00;0.62;8.17;7.47;;;27.30;37.10;;;;;;2278020;61;20415;-70
2021/07/04 08:05:25;0.00;0.00;0.62;0.00;0.00;0.62;7.87;7.17;;;27.30;37.10;;;;;;2278155;61;20801;-72
2021/07/04 08:07:53;0.00;0.00;0.62;0.00;0.00;0.62;8.20;7.40;;;27.30;37.10;;;;;;2277302;61;20355;-70
2021/07/04 08:10:24;0.00;0.00;0.62;0.00;0.00;0.62;10.10;7.20;;;27.40;37.10;;;;;;2277405;60;20374;-72
2021/07/04 08:12:50;0.00;0.00;0.62;0.00;0.00;0.62;8.03;7.23;;;27.40;37.10;;;;;;2278086;60;20363;-70
2021/07/04 08:15:17;0.00;0.00;0.62;0.00;0.00;0.62;6.93;6.33;;;27.40;37.10;;;;;;2277897;61;20427;-69
2021/07/04 08:17:45;0.00;0.00;0.62;0.00;0.00;0.62;7.90;6.77;;;27.40;37.10;;;;;;2277577;61;20356;-72
2021/07/04 08:20:14;0.00;0.00;0.62;0.00;0.00;0.62;7.90;7.10;;;27.40;37.10;;;;;;2277630;60;20435;-69
2021/07/04 08:22:42;0.00;0.00;0.62;0.00;0.00;0.62;8.30;7.40;;;27.50;37.20;;;;;;2277675;61;20599;-69
2021/07/04 08:25:10;0.00;0.00;0.62;0.00;0.00;0.62;8.20;7.40;;;27.50;37.20;;;;;;2278011;60;20354;-68
2021/07/04 08:27:37;0.00;0.00;0.62;0.00;0.00;0.62;8.00;7.20;;;27.50;37.10;;;;;;2278085;61;20344;-68
2021/07/04 08:30:05;0.00;0.00;0.62;0.00;0.00;0.62;7.20;6.50;;;27.50;37.10;;;;;;2277910;61;20550;-67
2021/07/04 08:32:32;0.00;0.00;0.62;0.00;0.00;0.62;7.07;6.47;;;27.60;37.20;;;;;;2277940;61;20372;-70
2021/07/04 08:34:59;0.00;0.00;0.62;0.00;0.00;0.62;10.30;8.03;;;27.60;37.20;;;;;;2277519;61;20382;-66
2021/07/04 08:37:26;0.00;0.00;0.62;0.00;0.00;0.62;8.07;7.37;;;27.60;37.20;;;;;;2277814;61;20714;-68
2021/07/04 08:39:53;0.00;0.00;0.62;0.00;0.00;0.62;7.00;6.40;;;27.60;37.20;;;;;;2277529;61;20358;-66
2021/07/04 08:42:20;0.00;0.00;0.62;0.00;0.00;0.62;7.20;6.60;;;27.70;37.20;;;;;;2277840;61;20708;-71
2021/07/04 08:44:48;0.00;0.00;0.62;0.00;0.00;0.62;7.93;7.23;;;27.70;37.10;;;;;;2277677;61;20347;-72
2021/07/04 08:47:16;0.00;0.00;0.62;0.00;0.00;0.62;8.17;7.47;;;27.70;37.10;;;;;;2277983;61;20352;-71
2021/07/04 08:49:43;0.00;0.00;0.62;0.00;0.00;0.62;6.90;6.30;;;27.70;37.10;;;;;;2277843;61;20599;-70
2021/07/04 08:52:09;0.00;0.00;0.62;0.00;0.00;0.62;7.50;6.80;;;27.70;37.10;;;;;;2277583;61;20605;-66
2021/07/04 08:54:36;0.00;0.00;0.62;0.00;0.00;0.62;7.90;6.43;;;27.70;37.10;;;;;;2278086;61;20387;-69
2021/07/04 08:57:11;0.00;0.00;0.62;0.00;0.00;0.62;7.63;6.90;;;27.70;37.10;;;;;;2277836;61;20684;-69
2021/07/04 08:59:38;0.00;0.00;0.62;0.00;0.00;0.62;7.50;6.80;;;27.80;37.10;;;;;;2277171;61;20347;-66
2021/07/04 09:02:10;0.00;0.00;0.62;0.00;0.00;0.62;7.13;6.50;;;27.80;37.10;;;;;;2278108;61;20352;-67
2021/07/04 09:04:38;0.00;0.00;0.62;0.00;0.00;0.62;8.30;7.60;;;27.80;37.10;;;;;;2278090;61;20351;-67
2021/07/04 09:07:05;0.00;0.00;0.62;0.00;0.00;0.62;8.33;7.60;;;27.80;37.20;;;;;;2277547;60;20355;-67
2021/07/04 09:09:34;0.00;0.00;0.62;0.00;0.00;0.62;9.07;8.27;;;27.80;37.10;;;;;;2277803;60;20352;-68
2021/07/04 09:12:05;0.00;0.00;0.62;0.00;0.00;0.62;10.30;8.90;;;27.90;37.20;;;;;;2277860;61;20736;-64
2021/07/04 09:14:36;0.00;0.00;0.62;0.00;0.00;0.62;8.73;8.00;;;27.90;37.20;;;;;;2277506;61;20719;-66
2021/07/04 09:17:05;0.00;0.00;0.62;0.00;0.00;0.62;8.40;7.60;;;27.90;37.10;;;;;;2277860;61;20589;-65
2021/07/04 09:19:32;0.00;0.00;0.62;0.00;0.00;0.62;8.33;7.53;;;27.90;37.10;;;;;;2277916;61;20542;-68
2021/07/04 09:22:03;0.00;0.00;0.62;0.00;0.00;0.62;11.43;8.23;;;27.90;37.10;;;;;;2277460;61;20347;-67
2021/07/04 09:24:31;0.00;0.00;0.62;0.00;0.00;0.62;8.87;8.07;;;28.00;37.20;;;;;;2277821;61;20422;-68
2021/07/04 09:26:58;0.00;0.00;0.62;0.00;0.00;0.62;8.90;8.10;;;28.00;37.30;;;;;;2277787;61;20362;-68
2021/07/04 09:29:48;0.00;0.00;0.62;0.00;0.00;0.62;8.33;7.63;;;28.00;37.20;;;;;;2277473;61;20633;-64
2021/07/04 09:32:18;0.00;0.00;0.62;0.00;0.00;0.62;9.00;7.00;;;28.00;37.80;;;;;;2277776;60;20402;-67
2021/07/04 09:35:11;0.00;0.00;0.62;0.00;0.00;0.62;8.27;7.57;;;28.00;37.00;;;;;;2277710;61;20707;-70
2021/07/04 09:37:41;0.00;0.00;0.62;0.00;0.00;0.62;9.10;8.20;;;28.00;37.00;;;;;;2277353;61;20359;-69
2021/07/04 09:40:10;0.00;0.00;0.62;0.00;0.00;0.62;8.70;7.90;;;28.00;36.90;;;;;;2277984;61;20434;-71
2021/07/04 09:42:54;0.00;0.00;0.62;0.00;0.00;0.62;8.97;8.07;;;28.10;37.60;;;;;;2277296;61;20371;-68
2021/07/04 09:45:24;0.00;0.00;0.62;0.00;0.00;0.62;8.30;7.60;;;28.10;36.90;;;;;;2277760;61;20344;-68